createdAt,value
2018-11-21T00:00:41.403Z,608.10
2018-11-21T00:01:41.384Z,596.20
2018-11-21T00:02:43.498Z,589.40
2018-11-21T00:03:41.368Z,582.90
2018-11-21T00:04:41.370Z,589.10
2018-11-21T00:05:41.339Z,573.40
2018-11-21T00:06:41.357Z,601.50
2018-11-21T00:07:41.323Z,544.30
2018-11-21T00:08:41.725Z,576.00
2018-11-21T00:09:41.301Z,553.90
2018-11-21T00:10:41.293Z,537.30
2018-11-21T00:11:41.275Z,636.60
2018-11-21T00:12:41.281Z,593.50
2018-11-21T00:13:41.268Z,625.80
2018-11-21T00:14:41.699Z,609.40
2018-11-21T00:15:41.237Z,562.80
2018-11-21T00:16:41.270Z,547.10
2018-11-21T00:17:41.260Z,549.30
2018-11-21T00:18:41.214Z,567.70
2018-11-21T00:19:41.214Z,556.20
2018-11-21T00:20:41.521Z,527.00
2018-11-21T00:21:41.172Z,588.20
2018-11-21T00:22:41.187Z,553.90
2018-11-21T00:23:41.154Z,551.20
2018-11-21T00:24:41.138Z,566.70
2018-11-21T00:25:41.131Z,551.50
2018-11-21T00:26:43.123Z,550.10
2018-11-21T00:27:41.104Z,562.60
2018-11-21T00:28:41.093Z,542.40
2018-11-21T00:29:41.080Z,594.90
2018-11-21T00:30:41.058Z,572.00
2018-11-21T00:31:41.078Z,525.30
2018-11-21T00:32:41.431Z,525.90
2018-11-21T00:33:41.043Z,546.40
2018-11-21T00:34:41.008Z,505.60
2018-11-21T00:35:41.004Z,527.20
2018-11-21T00:36:41.029Z,561.10
2018-11-21T00:37:40.980Z,476.10
2018-11-21T00:38:42.945Z,508.40
2018-11-21T00:39:41.002Z,495.10
2018-11-21T00:40:40.939Z,534.60
2018-11-21T00:41:40.960Z,515.20
2018-11-21T00:42:46.423Z,484.20
2018-11-21T00:43:40.923Z,470.30
2018-11-21T00:44:41.565Z,427.10
2018-11-21T00:45:40.912Z,481.30
2018-11-21T00:46:40.908Z,474.80
2018-11-21T00:47:40.920Z,524.50
2018-11-21T00:48:40.891Z,498.70
2018-11-21T00:49:40.873Z,480.90
2018-11-21T00:50:41.114Z,524.20
2018-11-21T00:51:40.837Z,422.00
2018-11-21T00:52:40.839Z,486.80
2018-11-21T00:53:40.817Z,493.40
2018-11-21T00:54:40.812Z,516.20
2018-11-21T00:55:42.912Z,539.20
2018-11-21T00:56:40.764Z,504.30
2018-11-21T00:57:40.761Z,472.60
2018-11-21T00:58:40.769Z,504.20
2018-11-21T00:59:40.757Z,478.60
2018-11-21T01:00:40.740Z,490.00
2018-11-21T01:01:42.828Z,491.20
2018-11-21T01:02:40.716Z,502.10
2018-11-21T01:03:40.681Z,462.30
2018-11-21T01:04:40.708Z,490.00
2018-11-21T01:05:40.734Z,516.70
2018-11-21T01:06:40.690Z,519.50
2018-11-21T01:07:41.036Z,458.80
2018-11-21T01:08:40.661Z,499.30
2018-11-21T01:09:40.651Z,525.80
2018-11-21T01:10:40.617Z,500.00
2018-11-21T01:11:40.608Z,525.50
2018-11-21T01:12:42.845Z,499.60
2018-11-21T01:13:40.607Z,500.80
2018-11-21T01:14:40.593Z,530.00
2018-11-21T01:15:40.574Z,501.30
2018-11-21T01:16:40.560Z,487.20
2018-11-21T01:17:40.538Z,480.60
2018-11-21T01:18:40.899Z,516.80
2018-11-21T01:19:40.532Z,508.30
2018-11-21T01:20:40.508Z,539.70
2018-11-21T01:21:40.509Z,537.50
2018-11-21T01:22:40.535Z,556.80
2018-11-21T01:23:40.484Z,536.40
2018-11-21T01:24:42.385Z,502.70
2018-11-21T01:25:40.507Z,478.30
2018-11-21T01:26:40.462Z,482.70
2018-11-21T01:27:40.428Z,447.10
2018-11-21T01:28:40.439Z,510.60
2018-11-21T01:29:40.425Z,508.60
2018-11-21T01:30:40.863Z,508.50
2018-11-21T01:31:40.384Z,510.20
2018-11-21T01:32:40.400Z,542.20
2018-11-21T01:33:40.369Z,546.30
2018-11-21T01:34:40.361Z,510.60
2018-11-21T01:35:40.357Z,515.30
2018-11-21T01:36:42.451Z,518.40
2018-11-21T01:37:40.336Z,498.10
2018-11-21T01:38:40.327Z,514.90
2018-11-21T01:39:40.315Z,499.20
2018-11-21T01:40:40.349Z,490.20
2018-11-21T01:41:40.284Z,512.20
2018-11-21T01:42:40.728Z,493.60
2018-11-21T01:43:40.265Z,518.00
2018-11-21T01:44:40.253Z,515.50
2018-11-21T01:45:40.284Z,501.10
2018-11-21T01:46:40.221Z,516.60
2018-11-21T01:47:40.202Z,479.30
2018-11-21T01:48:42.067Z,500.00
2018-11-21T01:49:40.220Z,518.30
2018-11-21T01:50:40.195Z,497.90
2018-11-21T01:51:40.169Z,517.60
2018-11-21T01:52:40.185Z,498.40
2018-11-21T01:53:40.201Z,530.70
2018-11-21T01:54:42.151Z,502.40
2018-11-21T01:55:40.125Z,502.50
2018-11-21T01:56:40.136Z,526.30
2018-11-21T01:57:40.120Z,527.30
2018-11-21T01:58:40.090Z,491.80
2018-11-21T01:59:40.093Z,492.60
2018-11-21T02:00:42.076Z,549.40
2018-11-21T02:01:40.064Z,503.90
2018-11-21T02:02:40.058Z,527.70
2018-11-21T02:03:40.036Z,514.90
2018-11-21T02:04:40.046Z,505.60
2018-11-21T02:05:40.070Z,514.00
2018-11-21T02:06:42.570Z,487.60
2018-11-21T02:07:40.009Z,531.30
2018-11-21T02:08:39.983Z,521.50
2018-11-21T02:09:39.978Z,494.50
2018-11-21T02:10:39.977Z,531.40
2018-11-21T02:11:39.992Z,518.20
2018-11-21T02:12:42.099Z,503.60
2018-11-21T02:13:39.926Z,494.70
2018-11-21T02:14:39.932Z,484.20
2018-11-21T02:15:39.904Z,499.20
2018-11-21T02:16:39.914Z,491.50
2018-11-21T02:17:39.900Z,504.80
2018-11-21T02:18:40.175Z,531.70
2018-11-21T02:19:39.876Z,510.90
2018-11-21T02:20:39.865Z,492.10
2018-11-21T02:21:39.841Z,484.80
2018-11-21T02:22:39.835Z,506.30
2018-11-21T02:23:42.155Z,503.00
2018-11-21T02:24:39.815Z,510.10
2018-11-21T02:25:39.804Z,528.40
2018-11-21T02:26:39.844Z,488.90
2018-11-21T02:27:39.799Z,489.30
2018-11-21T02:28:39.773Z,558.40
2018-11-21T02:29:40.754Z,532.40
2018-11-21T02:30:39.745Z,516.90
2018-11-21T02:31:39.729Z,516.50
2018-11-21T02:32:39.730Z,459.00
2018-11-21T02:33:39.708Z,475.10
2018-11-21T02:34:39.719Z,478.50
2018-11-21T02:35:43.503Z,488.30
2018-11-21T02:36:39.681Z,532.80
2018-11-21T02:37:39.672Z,538.40
2018-11-21T02:38:39.683Z,471.50
2018-11-21T02:39:39.652Z,500.80
2018-11-21T02:40:39.654Z,505.00
2018-11-21T02:41:41.734Z,540.90
2018-11-21T02:42:39.625Z,516.50
2018-11-21T02:43:39.613Z,438.20
2018-11-21T02:44:39.588Z,486.90
2018-11-21T02:45:39.602Z,501.80
2018-11-21T02:46:39.580Z,520.10
2018-11-21T02:47:40.208Z,507.70
2018-11-21T02:48:39.591Z,476.70
2018-11-21T02:49:39.557Z,512.90
2018-11-21T02:50:39.550Z,504.10
2018-11-21T02:51:39.564Z,525.10
2018-11-21T02:52:39.509Z,484.50
2018-11-21T02:53:39.860Z,517.60
2018-11-21T02:54:39.544Z,530.60
2018-11-21T02:55:39.494Z,453.00
2018-11-21T02:56:39.472Z,513.00
2018-11-21T02:57:39.448Z,524.60
2018-11-21T02:58:39.445Z,474.00
2018-11-21T02:59:41.653Z,515.20
2018-11-21T03:00:39.429Z,521.70
2018-11-21T03:01:39.404Z,534.20
2018-11-21T03:02:39.394Z,505.20
2018-11-21T03:03:39.400Z,527.30
2018-11-21T03:04:39.401Z,515.70
2018-11-21T03:05:42.835Z,495.10
2018-11-21T03:06:39.358Z,516.50
2018-11-21T03:07:39.361Z,537.70
2018-11-21T03:08:39.358Z,534.00
2018-11-21T03:09:39.327Z,518.30
2018-11-21T03:10:39.310Z,569.80
2018-11-21T03:11:41.399Z,512.20
2018-11-21T03:12:39.286Z,492.80
2018-11-21T03:13:39.288Z,509.00
2018-11-21T03:14:39.264Z,511.80
2018-11-21T03:15:39.275Z,501.70
2018-11-21T03:16:39.249Z,543.90
2018-11-21T03:17:39.590Z,500.50
2018-11-21T03:18:39.247Z,543.30
2018-11-21T03:19:39.235Z,511.90
2018-11-21T03:20:39.222Z,524.30
2018-11-21T03:21:39.202Z,522.20
2018-11-21T03:22:39.203Z,499.50
2018-11-21T03:23:41.122Z,555.20
2018-11-21T03:24:39.167Z,516.30
2018-11-21T03:25:39.175Z,544.50
2018-11-21T03:26:39.159Z,489.50
2018-11-21T03:27:39.146Z,528.80
2018-11-21T03:28:39.117Z,559.30
2018-11-21T03:29:42.718Z,515.10
2018-11-21T03:30:39.123Z,561.20
2018-11-21T03:31:39.094Z,549.20
2018-11-21T03:32:39.094Z,597.40
2018-11-21T03:33:39.074Z,567.90
2018-11-21T03:34:39.068Z,553.70
2018-11-21T03:35:39.395Z,582.20
2018-11-21T03:36:39.042Z,555.60
2018-11-21T03:37:39.044Z,601.10
2018-11-21T03:38:39.023Z,589.10
2018-11-21T03:39:39.008Z,585.80
2018-11-21T03:40:38.992Z,585.80
2018-11-21T03:41:39.343Z,578.50
2018-11-21T03:42:38.975Z,542.80
2018-11-21T03:43:39.017Z,561.60
2018-11-21T03:44:38.949Z,579.50
2018-11-21T03:45:38.930Z,546.40
2018-11-21T03:46:40.906Z,543.30
2018-11-21T03:47:38.928Z,576.40
2018-11-21T03:48:38.917Z,563.70
2018-11-21T03:49:38.908Z,575.00
2018-11-21T03:50:38.875Z,544.10
2018-11-21T03:51:38.878Z,553.30
2018-11-21T03:52:39.217Z,528.30
2018-11-21T03:53:38.852Z,552.20
2018-11-21T03:54:38.834Z,538.00
2018-11-21T03:55:38.816Z,572.80
2018-11-21T03:56:38.822Z,589.50
2018-11-21T03:57:38.798Z,588.20
2018-11-21T03:58:39.539Z,539.80
2018-11-21T03:59:38.811Z,562.70
2018-11-21T04:00:38.772Z,565.00
2018-11-21T04:01:38.766Z,550.00
2018-11-21T04:02:38.758Z,572.60
2018-11-21T04:03:38.746Z,589.80
2018-11-21T04:04:40.939Z,546.40
2018-11-21T04:05:38.727Z,582.60
2018-11-21T04:06:38.704Z,529.00
2018-11-21T04:07:38.704Z,579.60
2018-11-21T04:08:42.473Z,577.80
2018-11-21T04:09:38.673Z,572.10
2018-11-21T04:10:39.186Z,596.80
2018-11-21T04:11:38.667Z,591.50
2018-11-21T04:12:38.656Z,567.20
2018-11-21T04:13:38.645Z,584.80
2018-11-21T04:14:38.629Z,546.40
2018-11-21T04:15:38.601Z,543.60
2018-11-21T04:16:40.760Z,544.40
2018-11-21T04:17:38.578Z,554.30
2018-11-21T04:18:38.565Z,539.80
2018-11-21T04:19:38.574Z,545.50
2018-11-21T04:20:38.547Z,510.80
2018-11-21T04:21:38.542Z,500.30
2018-11-21T04:22:38.906Z,520.00
2018-11-21T04:23:38.626Z,488.20
2018-11-21T04:24:38.631Z,507.60
2018-11-21T04:25:38.519Z,517.00
2018-11-21T04:26:38.619Z,484.20
2018-11-21T04:27:40.701Z,536.40
2018-11-21T04:28:38.571Z,492.20
2018-11-21T04:29:38.475Z,508.60
2018-11-21T04:30:38.459Z,513.60
2018-11-21T04:31:38.448Z,493.50
2018-11-21T04:32:38.448Z,535.40
2018-11-21T04:33:39.442Z,509.70
2018-11-21T04:34:38.400Z,510.30
2018-11-21T04:35:38.408Z,510.50
2018-11-21T04:36:38.408Z,555.90
2018-11-21T04:37:38.380Z,526.00
2018-11-21T04:38:38.372Z,586.00
2018-11-21T04:39:40.516Z,546.50
2018-11-21T04:40:38.342Z,534.20
2018-11-21T04:41:38.335Z,489.90
2018-11-21T04:42:38.332Z,529.70
2018-11-21T04:43:38.314Z,487.50
2018-11-21T04:44:38.295Z,531.60
2018-11-21T04:45:38.617Z,527.10
2018-11-21T04:46:38.262Z,520.60
2018-11-21T04:47:38.304Z,495.80
2018-11-21T04:48:38.250Z,527.10
2018-11-21T04:49:38.233Z,529.20
2018-11-21T04:50:38.232Z,521.70
2018-11-21T04:51:38.654Z,505.40
2018-11-21T04:52:38.212Z,530.40
2018-11-21T04:53:38.216Z,539.90
2018-11-21T04:54:38.184Z,493.60
2018-11-21T04:55:38.153Z,534.30
2018-11-21T04:56:38.163Z,551.60
2018-11-21T04:57:40.241Z,547.70
2018-11-21T04:58:38.180Z,538.90
2018-11-21T04:59:38.113Z,538.70
2018-11-21T05:00:38.128Z,507.70
2018-11-21T05:01:38.138Z,526.90
2018-11-21T05:02:38.109Z,516.50
2018-11-21T05:03:39.937Z,551.20
2018-11-21T05:04:38.122Z,536.10
2018-11-21T05:05:38.062Z,557.60
2018-11-21T05:06:38.031Z,565.40
2018-11-21T05:07:38.026Z,531.40
2018-11-21T05:08:38.067Z,531.20
2018-11-21T05:09:40.313Z,571.10
2018-11-21T05:10:38.007Z,583.70
2018-11-21T05:11:38.019Z,594.80
2018-11-21T05:12:37.962Z,558.80
2018-11-21T05:13:37.962Z,531.40
2018-11-21T05:14:37.998Z,541.60
2018-11-21T05:15:40.236Z,543.40
2018-11-21T05:16:37.932Z,571.00
2018-11-21T05:17:37.931Z,500.90
2018-11-21T05:18:37.906Z,550.80
2018-11-21T05:19:37.906Z,551.60
2018-11-21T05:20:37.888Z,527.10
2018-11-21T05:21:38.227Z,528.10
2018-11-21T05:22:37.880Z,516.80
2018-11-21T05:23:37.876Z,543.30
2018-11-21T05:24:37.830Z,522.80
2018-11-21T05:25:37.820Z,543.10
2018-11-21T05:26:37.835Z,538.50
2018-11-21T05:27:38.424Z,516.80
2018-11-21T05:28:37.839Z,532.80
2018-11-21T05:29:37.799Z,515.20
2018-11-21T05:30:37.824Z,506.50
2018-11-21T05:31:37.763Z,532.40
2018-11-21T05:32:37.761Z,550.90
2018-11-21T05:33:39.659Z,562.80
2018-11-21T05:34:37.743Z,547.50
2018-11-21T05:35:37.708Z,536.70
2018-11-21T05:36:37.726Z,558.70
2018-11-21T05:37:37.708Z,533.70
2018-11-21T05:38:37.693Z,529.90
2018-11-21T05:39:41.140Z,527.70
2018-11-21T05:40:37.652Z,543.80
2018-11-21T05:41:37.665Z,571.00
2018-11-21T05:42:37.640Z,541.80
2018-11-21T05:43:37.639Z,595.10
2018-11-21T05:44:37.674Z,562.50
2018-11-21T05:45:38.371Z,554.20
2018-11-21T05:46:37.602Z,543.50
2018-11-21T05:47:37.582Z,538.90
2018-11-21T05:48:37.571Z,538.70
2018-11-21T05:49:37.577Z,531.10
2018-11-21T05:50:37.569Z,535.20
2018-11-21T05:51:37.659Z,572.50
2018-11-21T05:52:37.555Z,569.90
2018-11-21T05:53:37.506Z,554.90
2018-11-21T05:54:37.519Z,536.00
2018-11-21T05:55:37.513Z,562.80
2018-11-21T05:56:39.705Z,560.00
2018-11-21T05:57:37.497Z,540.20
2018-11-21T05:58:37.482Z,544.50
2018-11-21T05:59:37.443Z,548.40
2018-11-21T06:00:37.454Z,579.00
2018-11-21T06:01:37.470Z,560.30
2018-11-21T06:02:37.880Z,568.60
2018-11-21T06:03:37.419Z,549.90
2018-11-21T06:04:37.418Z,513.80
2018-11-21T06:05:37.393Z,553.70
2018-11-21T06:06:37.380Z,531.30
2018-11-21T06:07:37.362Z,582.30
2018-11-21T06:08:37.702Z,544.20
2018-11-21T06:09:37.327Z,539.60
2018-11-21T06:10:37.344Z,573.10
2018-11-21T06:11:37.338Z,554.00
2018-11-21T06:12:37.299Z,566.20
2018-11-21T06:13:37.298Z,518.90
2018-11-21T06:14:37.646Z,529.30
2018-11-21T06:15:37.286Z,540.00
2018-11-21T06:16:37.252Z,566.10
2018-11-21T06:17:37.252Z,562.70
2018-11-21T06:18:37.272Z,541.90
2018-11-21T06:19:37.241Z,545.80
2018-11-21T06:20:39.222Z,509.90
2018-11-21T06:21:37.246Z,527.20
2018-11-21T06:22:37.186Z,568.30
2018-11-21T06:23:37.185Z,519.30
2018-11-21T06:24:37.190Z,501.30
2018-11-21T06:25:37.181Z,555.20
2018-11-21T06:26:37.848Z,521.60
2018-11-21T06:27:37.145Z,559.40
2018-11-21T06:28:37.141Z,575.50
2018-11-21T06:29:37.128Z,545.40
2018-11-21T06:30:37.103Z,493.20
2018-11-21T06:31:37.092Z,481.20
2018-11-21T06:32:39.481Z,537.60
2018-11-21T06:33:37.087Z,546.40
2018-11-21T06:34:37.058Z,487.10
2018-11-21T06:35:37.054Z,499.80
2018-11-21T06:36:37.091Z,556.10
2018-11-21T06:37:37.035Z,548.70
2018-11-21T06:38:37.364Z,570.30
2018-11-21T06:39:37.015Z,561.60
2018-11-21T06:40:36.993Z,652.70
2018-11-21T06:41:37.002Z,583.20
2018-11-21T06:42:36.964Z,613.40
2018-11-21T06:43:36.960Z,629.00
2018-11-21T06:44:37.307Z,633.70
2018-11-21T06:45:36.933Z,591.30
2018-11-21T06:46:36.915Z,633.40
2018-11-21T06:47:36.924Z,632.60
2018-11-21T06:48:36.895Z,627.10
2018-11-21T06:49:37.249Z,654.80
2018-11-21T06:50:36.893Z,596.00
2018-11-21T06:51:36.872Z,624.10
2018-11-21T06:52:36.867Z,636.20
2018-11-21T06:53:36.828Z,641.30
2018-11-21T06:54:38.776Z,546.10
2018-11-21T06:55:36.840Z,554.90
2018-11-21T06:56:36.825Z,587.30
2018-11-21T06:57:36.798Z,542.40
2018-11-21T06:58:36.797Z,526.10
2018-11-21T06:59:36.794Z,530.00
2018-11-21T07:00:37.671Z,499.00
2018-11-21T07:01:36.745Z,555.20
2018-11-21T07:02:36.731Z,579.50
2018-11-21T07:03:36.751Z,607.30
2018-11-21T07:04:36.744Z,621.80
2018-11-21T07:05:36.719Z,550.20
2018-11-21T07:06:40.654Z,546.80
2018-11-21T07:07:36.696Z,566.70
2018-11-21T07:08:36.668Z,539.70
2018-11-21T07:09:36.685Z,546.70
2018-11-21T07:10:36.664Z,546.20
2018-11-21T07:11:36.640Z,543.60
2018-11-21T07:12:36.983Z,507.70
2018-11-21T07:13:36.612Z,552.40
2018-11-21T07:14:36.617Z,594.70
2018-11-21T07:15:36.606Z,527.40
2018-11-21T07:16:36.631Z,545.30
2018-11-21T07:17:36.945Z,558.50
2018-11-21T07:18:36.616Z,520.70
2018-11-21T07:19:36.554Z,552.00
2018-11-21T07:20:36.532Z,549.90
2018-11-21T07:21:36.526Z,543.00
2018-11-21T07:22:36.974Z,532.40
2018-11-21T07:23:36.510Z,562.10
2018-11-21T07:24:36.515Z,548.00
2018-11-21T07:25:36.480Z,541.40
2018-11-21T07:26:36.472Z,557.50
2018-11-21T07:27:36.485Z,563.50
2018-11-21T07:28:40.015Z,556.20
2018-11-21T07:29:36.438Z,513.80
2018-11-21T07:30:36.437Z,550.30
2018-11-21T07:31:36.407Z,520.10
2018-11-21T07:32:36.423Z,601.00
2018-11-21T07:33:36.409Z,535.00
2018-11-21T07:34:37.002Z,576.50
2018-11-21T07:35:36.386Z,543.90
2018-11-21T07:36:36.364Z,539.10
2018-11-21T07:37:36.368Z,603.60
2018-11-21T07:38:36.347Z,490.70
2018-11-21T07:39:36.331Z,541.30
2018-11-21T07:40:36.785Z,583.80
2018-11-21T07:41:36.305Z,541.90
2018-11-21T07:42:36.298Z,558.40
2018-11-21T07:43:36.297Z,528.40
2018-11-21T07:44:36.273Z,528.90
2018-11-21T07:45:36.277Z,508.70
2018-11-21T07:46:37.009Z,566.70
2018-11-21T07:47:36.290Z,519.90
2018-11-21T07:48:36.228Z,566.90
2018-11-21T07:49:36.216Z,537.30
2018-11-21T07:50:36.204Z,550.40
2018-11-21T07:51:36.214Z,523.20
2018-11-21T07:52:36.548Z,540.90
2018-11-21T07:53:36.186Z,562.90
2018-11-21T07:54:36.231Z,517.70
2018-11-21T07:55:36.177Z,553.90
2018-11-21T07:56:36.164Z,502.30
2018-11-21T07:57:36.147Z,551.80
2018-11-21T07:58:38.286Z,512.40
2018-11-21T07:59:36.098Z,528.60
2018-11-21T08:00:36.090Z,510.00
2018-11-21T08:01:36.102Z,528.20
2018-11-21T08:02:36.092Z,509.00
2018-11-21T08:03:36.083Z,489.60
2018-11-21T08:04:38.057Z,525.90
2018-11-21T08:05:36.065Z,525.30
2018-11-21T08:06:36.016Z,558.30
2018-11-21T08:07:36.023Z,512.00
2018-11-21T08:08:36.009Z,533.40
2018-11-21T08:09:35.996Z,527.30
2018-11-21T08:10:36.350Z,539.40
2018-11-21T08:11:35.993Z,539.80
2018-11-21T08:12:35.960Z,557.00
2018-11-21T08:13:35.968Z,519.30
2018-11-21T08:14:35.958Z,536.70
2018-11-21T08:15:36.393Z,481.80
2018-11-21T08:16:35.922Z,475.40
2018-11-21T08:17:35.922Z,530.70
2018-11-21T08:18:35.930Z,530.70
2018-11-21T08:19:35.891Z,514.80
2018-11-21T08:20:36.691Z,520.10
2018-11-21T08:21:35.870Z,558.30
2018-11-21T08:22:35.863Z,572.30
2018-11-21T08:23:35.843Z,553.50
2018-11-21T08:24:35.849Z,529.60
2018-11-21T08:25:35.843Z,531.60
2018-11-21T08:26:36.323Z,542.70
2018-11-21T08:27:35.845Z,561.00
2018-11-21T08:28:35.787Z,531.80
2018-11-21T08:29:35.782Z,546.10
2018-11-21T08:30:35.786Z,532.00
2018-11-21T08:31:39.464Z,576.40
2018-11-21T08:32:35.753Z,507.50
2018-11-21T08:33:35.764Z,543.00
2018-11-21T08:34:35.736Z,545.30
2018-11-21T08:35:35.727Z,531.60
2018-11-21T08:36:35.709Z,510.20
2018-11-21T08:37:37.704Z,528.90
2018-11-21T08:38:35.683Z,541.00
2018-11-21T08:39:35.663Z,534.90
2018-11-21T08:40:35.683Z,555.60
2018-11-21T08:41:35.646Z,555.80
2018-11-21T08:42:35.653Z,595.50
2018-11-21T08:43:37.639Z,537.50
2018-11-21T08:44:35.628Z,516.20
2018-11-21T08:45:35.617Z,538.60
2018-11-21T08:46:35.915Z,578.70
2018-11-21T08:47:35.599Z,583.30
2018-11-21T08:48:35.593Z,545.70
2018-11-21T08:49:35.954Z,545.20
2018-11-21T08:50:35.559Z,600.20
2018-11-21T08:51:35.552Z,568.60
2018-11-21T08:52:35.529Z,565.00
2018-11-21T08:53:35.526Z,556.10
2018-11-21T08:54:35.527Z,542.30
2018-11-21T08:55:36.155Z,577.30
2018-11-21T08:56:35.496Z,519.50
2018-11-21T08:57:35.486Z,545.20
2018-11-21T08:58:35.470Z,561.10
2018-11-21T08:59:35.452Z,551.90
2018-11-21T09:00:35.431Z,533.30
2018-11-21T09:01:37.749Z,557.90
2018-11-21T09:02:35.442Z,501.90
2018-11-21T09:03:35.395Z,540.60
2018-11-21T09:04:35.419Z,543.50
2018-11-21T09:05:35.397Z,505.70
2018-11-21T09:06:35.395Z,564.10
2018-11-21T09:07:35.729Z,526.50
2018-11-21T09:08:35.359Z,531.20
2018-11-21T09:09:35.356Z,570.90
2018-11-21T09:10:36.691Z,547.30
2018-11-21T09:11:35.312Z,587.90
2018-11-21T09:12:35.329Z,585.40
2018-11-21T09:13:37.257Z,540.70
2018-11-21T09:14:35.300Z,552.40
2018-11-21T09:15:35.296Z,495.60
2018-11-21T09:16:35.263Z,523.10
2018-11-21T09:17:35.252Z,531.40
2018-11-21T09:18:35.266Z,513.40
2018-11-21T09:19:35.656Z,487.00
2018-11-21T09:20:35.238Z,511.90
2018-11-21T09:21:35.214Z,536.90
2018-11-21T09:22:35.217Z,570.90
2018-11-21T09:23:35.259Z,544.00
2018-11-21T09:24:35.197Z,530.90
2018-11-21T09:25:35.787Z,489.60
2018-11-21T09:26:35.181Z,501.80
2018-11-21T09:27:35.200Z,515.40
2018-11-21T09:28:35.147Z,536.60
2018-11-21T09:29:35.128Z,464.30
2018-11-21T09:30:35.108Z,482.40
2018-11-21T09:31:35.874Z,493.90
2018-11-21T09:32:35.109Z,475.00
2018-11-21T09:33:35.097Z,495.20
2018-11-21T09:34:35.137Z,475.30
2018-11-21T09:35:35.073Z,507.00
2018-11-21T09:36:35.114Z,468.70
2018-11-21T09:37:36.894Z,464.80
2018-11-21T09:38:35.057Z,484.10
2018-11-21T09:39:35.044Z,476.50
2018-11-21T09:40:35.017Z,521.50
2018-11-21T09:41:35.021Z,553.40
2018-11-21T09:42:34.985Z,494.20
2018-11-21T09:43:36.934Z,533.80
2018-11-21T09:44:34.961Z,548.70
2018-11-21T09:45:34.956Z,530.00
2018-11-21T09:46:34.979Z,545.40
2018-11-21T09:47:34.959Z,539.50
2018-11-21T09:48:34.974Z,534.20
2018-11-21T09:49:37.342Z,473.60
2018-11-21T09:50:34.924Z,468.30
2018-11-21T09:51:34.915Z,458.30
2018-11-21T09:52:34.876Z,461.00
2018-11-21T09:53:34.932Z,453.60
2018-11-21T09:54:34.900Z,441.50
2018-11-21T09:55:40.378Z,445.40
2018-11-21T09:56:34.863Z,470.00
2018-11-21T09:57:34.829Z,485.20
2018-11-21T09:58:34.851Z,497.20
2018-11-21T09:59:34.811Z,545.20
2018-11-21T10:00:34.813Z,537.10
2018-11-21T10:01:38.323Z,571.50
2018-11-21T10:02:34.841Z,546.00
2018-11-21T10:03:34.782Z,496.30
2018-11-21T10:04:34.778Z,572.30
2018-11-21T10:05:34.774Z,571.80
2018-11-21T10:06:34.752Z,539.50
2018-11-21T10:07:36.832Z,470.50
2018-11-21T10:08:34.733Z,477.10
2018-11-21T10:09:34.715Z,494.00
2018-11-21T10:10:34.710Z,526.70
2018-11-21T10:11:34.709Z,566.40
2018-11-21T10:12:34.753Z,492.40
2018-11-21T10:13:36.574Z,481.90
2018-11-21T10:14:34.719Z,519.30
2018-11-21T10:15:34.682Z,492.90
2018-11-21T10:16:34.644Z,493.50
2018-11-21T10:17:34.653Z,481.40
2018-11-21T10:18:34.683Z,468.90
2018-11-21T10:19:34.977Z,501.80
2018-11-21T10:20:34.617Z,477.10
2018-11-21T10:21:34.615Z,472.50
2018-11-21T10:22:34.608Z,489.90
2018-11-21T10:23:34.580Z,529.70
2018-11-21T10:24:38.181Z,522.50
2018-11-21T10:25:34.579Z,515.10
2018-11-21T10:26:34.572Z,485.20
2018-11-21T10:27:34.547Z,492.30
2018-11-21T10:28:34.540Z,514.90
2018-11-21T10:29:35.432Z,485.70
2018-11-21T10:30:38.175Z,475.30
2018-11-21T10:31:34.517Z,511.10
2018-11-21T10:32:34.498Z,498.30
2018-11-21T10:33:34.490Z,466.60
2018-11-21T10:34:34.484Z,437.60
2018-11-21T10:35:36.054Z,551.40
2018-11-21T10:36:34.465Z,514.80
2018-11-21T10:37:34.462Z,485.70
2018-11-21T10:38:34.437Z,459.90
2018-11-21T10:39:34.442Z,451.30
2018-11-21T10:40:34.431Z,484.60
2018-11-21T10:41:34.429Z,443.10
2018-11-21T10:42:34.394Z,462.40
2018-11-21T10:43:34.401Z,431.60
2018-11-21T10:44:34.392Z,440.20
2018-11-21T10:45:34.371Z,447.90
2018-11-21T10:46:34.370Z,438.10
2018-11-21T10:47:34.335Z,455.90
2018-11-21T10:48:34.367Z,429.70
2018-11-21T10:49:34.355Z,420.30
2018-11-21T10:50:34.338Z,454.60
2018-11-21T10:51:34.320Z,394.30
2018-11-21T10:52:34.304Z,417.50
2018-11-21T10:53:34.300Z,425.80
2018-11-21T10:54:34.287Z,381.30
2018-11-21T10:55:34.295Z,364.90
2018-11-21T10:56:34.276Z,382.90
2018-11-21T10:57:34.268Z,355.00
2018-11-21T10:58:34.238Z,428.40
2018-11-21T10:59:34.238Z,420.50
2018-11-21T11:00:34.279Z,497.40
2018-11-21T11:01:34.220Z,520.80
2018-11-21T11:02:34.195Z,522.60
2018-11-21T11:03:34.191Z,495.70
2018-11-21T11:04:34.196Z,460.10
2018-11-21T11:05:34.225Z,459.30
2018-11-21T11:06:34.171Z,454.10
2018-11-21T11:07:39.468Z,497.60
2018-11-21T11:08:34.195Z,476.70
2018-11-21T11:09:34.136Z,473.70
2018-11-21T11:10:34.147Z,427.10
2018-11-21T11:11:34.135Z,426.80
2018-11-21T11:12:34.121Z,465.80
2018-11-21T11:13:35.362Z,439.10
2018-11-21T11:14:34.101Z,486.40
2018-11-21T11:15:34.091Z,474.90
2018-11-21T11:16:34.076Z,468.30
2018-11-21T11:17:34.059Z,501.60
2018-11-21T11:18:34.055Z,445.90
2018-11-21T11:19:34.101Z,494.20
2018-11-21T11:20:34.038Z,470.30
2018-11-21T11:21:34.084Z,437.40
2018-11-21T11:22:34.037Z,466.20
2018-11-21T11:23:34.037Z,429.60
2018-11-21T11:24:34.008Z,426.50
2018-11-21T11:25:34.011Z,462.90
2018-11-21T11:26:33.985Z,423.70
2018-11-21T11:27:33.974Z,393.20
2018-11-21T11:28:33.979Z,459.10
2018-11-21T11:29:33.969Z,434.60
2018-11-21T11:30:33.951Z,429.30
2018-11-21T11:31:33.934Z,513.80
2018-11-21T11:32:33.935Z,459.50
2018-11-21T11:33:33.944Z,454.20
2018-11-21T11:34:33.919Z,468.50
2018-11-21T11:35:33.922Z,444.00
2018-11-21T11:36:33.919Z,490.70
2018-11-21T11:37:33.892Z,429.20
2018-11-21T11:38:33.878Z,472.80
2018-11-21T11:39:34.419Z,480.40
2018-11-21T11:40:33.878Z,480.30
2018-11-21T11:41:33.850Z,440.90
2018-11-21T11:42:33.851Z,450.00
2018-11-21T11:43:33.840Z,433.50
2018-11-21T11:44:33.874Z,468.50
2018-11-21T11:45:33.855Z,442.00
2018-11-21T11:46:33.831Z,453.30
2018-11-21T11:47:33.853Z,439.60
2018-11-21T11:48:33.785Z,451.80
2018-11-21T11:49:33.834Z,422.90
2018-11-21T11:50:33.794Z,392.70
2018-11-21T11:51:33.778Z,392.60
2018-11-21T11:52:33.774Z,418.20
2018-11-21T11:53:33.757Z,423.20
2018-11-21T11:54:33.748Z,418.60
2018-11-21T11:55:33.748Z,439.00
2018-11-21T11:56:33.742Z,463.10
2018-11-21T11:57:33.723Z,415.00
2018-11-21T11:58:33.714Z,443.70
2018-11-21T11:59:33.697Z,452.10
2018-11-21T12:00:33.679Z,458.10
2018-11-21T12:01:33.697Z,413.00
2018-11-21T12:02:33.690Z,418.30
2018-11-21T12:03:33.676Z,459.10
2018-11-21T12:04:33.675Z,464.90
2018-11-21T12:05:33.656Z,427.50
2018-11-21T12:06:33.669Z,388.30
2018-11-21T12:07:33.662Z,420.00
2018-11-21T12:08:33.625Z,394.30
2018-11-21T12:09:33.626Z,455.90
2018-11-21T12:10:33.621Z,387.50
2018-11-21T12:11:33.654Z,465.80
2018-11-21T12:12:40.013Z,431.00
2018-11-21T12:13:33.595Z,391.30
2018-11-21T12:14:33.600Z,376.80
2018-11-21T12:15:33.612Z,401.30
2018-11-21T12:16:33.569Z,377.70
2018-11-21T12:17:33.561Z,431.30
2018-11-21T12:18:33.546Z,415.40
2018-11-21T12:19:33.541Z,368.70
2018-11-21T12:20:33.547Z,392.20
2018-11-21T12:21:33.528Z,398.50
2018-11-21T12:22:33.508Z,429.00
2018-11-21T12:23:33.525Z,391.20
2018-11-21T12:24:33.501Z,423.60
2018-11-21T12:25:33.503Z,366.90
2018-11-21T12:26:33.464Z,363.90
2018-11-21T12:27:33.713Z,410.20
2018-11-21T12:28:33.464Z,379.80